Time;durP1;ratioP1;P1;durP2;ratioP2;P2;SDS_P1;SDS_P2;PMS_P1;PMS_P2;Temp;Humidity;BMP_temperature;BMP_pressure;BME280_temperature;BME280_humidity;BME280_pressure;Samples;Min_cycle;Max_cycle;Signal;HPM_P1;HPM_P2
2021/07/11 00:00:31;;;;;;;18.15;8.20;;;;;;;13.73;100.00;95991.97;1023125;29;20597;-68
2021/07/11 00:01:01;;;;;;;12.77;7.80;;;;;;;13.77;100.00;95993.00;1016114;29;20533;-67
2021/07/11 00:01:31;;;;;;;25.75;9.63;;;;;;;13.77;100.00;95993.00;1015260;29;20276;-68
2021/07/11 00:02:02;;;;;;;10.10;5.78;;;;;;;13.76;100.00;95999.34;1014488;29;20039;-67
2021/07/11 00:02:35;;;;;;;7.57;6.00;;;;;;;13.64;100.00;95983.06;1015509;29;20031;-68
2021/07/11 00:03:06;;;;;;;10.73;6.65;;;;;;;13.75;100.00;95992.50;1022758;29;20039;-68
2021/07/11 00:03:37;;;;;;;13.30;7.43;;;;;;;13.76;100.00;95999.34;1020402;29;20271;-68
2021/07/11 00:04:07;;;;;;;15.27;7.75;;;;;;;13.74;100.00;96001.44;1019148;29;20055;-68
2021/07/11 00:04:37;;;;;;;16.05;7.47;;;;;;;13.76;100.00;96001.97;1022849;29;20035;-68
2021/07/11 00:05:12;;;;;;;14.07;6.53;;;;;;;13.75;100.00;96003.03;1024079;28;20042;-68
2021/07/11 00:05:43;;;;;;;12.63;7.30;;;;;;;13.76;100.00;95994.06;1015321;29;20334;-67
2021/07/11 00:06:13;;;;;;;11.93;7.15;;;;;;;13.77;100.00;96000.91;1019342;29;20835;-68
2021/07/11 00:06:44;;;;;;;17.40;9.02;;;;;;;13.78;100.00;96001.69;1018249;29;20884;-68
2021/07/11 00:07:17;;;;;;;15.68;8.23;;;;;;;13.75;100.00;95999.59;1014553;29;20594;-67
2021/07/11 00:07:47;;;;;;;9.80;6.93;;;;;;;13.71;100.00;96004.63;1018205;29;20608;-68
2021/07/11 00:08:17;;;;;;;11.10;6.63;;;;;;;13.70;100.00;96005.69;1018994;29;20270;-68
2021/07/11 00:08:48;;;;;;;10.10;5.90;;;;;;;13.63;100.00;95994.69;1015244;29;20027;-68
2021/07/11 00:09:18;;;;;;;9.20;5.90;;;;;;;13.63;100.00;95997.31;1012766;29;20020;-68
2021/07/11 00:09:51;;;;;;;10.90;6.68;;;;;;;13.63;100.00;95997.31;1015037;29;20458;-68
2021/07/11 00:10:22;;;;;;;11.60;7.78;;;;;;;13.61;100.00;95986.25;1015160;29;20095;-68
2021/07/11 00:10:52;;;;;;;11.65;7.70;;;;;;;13.60;100.00;95982.84;1019218;29;20259;-68
2021/07/11 00:11:26;;;;;;;21.08;8.65;;;;;;;13.64;100.00;95993.63;1018992;29;20568;-68
2021/07/11 00:11:56;;;;;;;10.70;6.13;;;;;;;13.58;100.00;95994.72;1017303;29;20032;-68
2021/07/11 00:12:27;;;;;;;7.25;5.65;;;;;;;13.58;100.00;95992.06;1014830;29;20638;-68
2021/07/11 00:12:57;;;;;;;7.43;5.57;;;;;;;13.56;100.00;95989.72;1014319;29;20056;-68
2021/07/11 00:13:28;;;;;;;8.77;6.50;;;;;;;13.56;100.00;95986.31;1016937;29;20034;-68
2021/07/11 00:14:01;;;;;;;12.63;6.55;;;;;;;13.54;100.00;95981.28;1017290;29;20110;-68
2021/07/11 00:14:31;;;;;;;10.02;6.82;;;;;;;13.59;100.00;95983.13;1010205;29;20109;-68
2021/07/11 00:15:03;;;;;;;10.93;7.50;;;;;;;13.62;100.00;95993.91;1015531;29;20332;-67
2021/07/11 00:15:33;;;;;;;11.20;5.75;;;;;;;13.56;100.00;95994.22;1019882;29;20514;-68
2021/07/11 00:16:04;;;;;;;7.97;6.20;;;;;;;13.54;100.00;95983.94;1019136;29;20272;-67
2021/07/11 00:16:35;;;;;;;7.97;5.50;;;;;;;13.57;100.00;95991.28;1019065;29;20809;-68
2021/07/11 00:17:05;;;;;;;9.65;7.28;;;;;;;13.58;100.00;95981.53;1015324;29;20681;-68
2021/07/11 00:17:36;;;;;;;8.93;6.38;;;;;;;13.55;100.00;95979.47;1014272;29;20553;-68
2021/07/11 00:18:06;;;;;;;10.98;7.40;;;;;;;13.59;100.00;95991.03;1017527;29;20096;-68
2021/07/11 00:18:37;;;;;;;7.97;4.50;;;;;;;13.55;100.00;95985.53;1018812;29;20489;-68
2021/07/11 00:19:07;;;;;;;6.15;5.00;;;;;;;13.55;100.00;95990.78;1019049;29;20046;-67
2021/07/11 00:19:37;;;;;;;8.77;5.82;;;;;;;13.57;100.00;95986.00;1014588;29;20080;-68
2021/07/11 00:20:12;;;;;;;8.00;5.90;;;;;;;13.60;100.00;95985.47;1017666;29;20522;-68
2021/07/11 00:20:43;;;;;;;11.40;7.47;;;;;;;13.66;100.00;95987.00;1015384;29;20450;-68
2021/07/11 00:21:13;;;;;;;8.93;6.85;;;;;;;13.63;100.00;95979.66;1016842;29;20308;-68
2021/07/11 00:21:46;;;;;;;11.23;7.00;;;;;;;13.62;100.00;95987.84;1014558;29;20036;-64
2021/07/11 00:22:17;;;;;;;8.25;6.03;;;;;;;13.58;100.00;95986.78;1020353;29;20473;-68
2021/07/11 00:22:48;;;;;;;6.82;5.28;;;;;;;13.54;100.00;95975.22;1018452;29;20271;-68
2021/07/11 00:23:18;;;;;;;7.47;5.78;;;;;;;13.60;100.00;95979.41;1011024;29;20028;-68
2021/07/11 00:23:49;;;;;;;7.03;5.07;;;;;;;13.57;100.00;95986.00;1014728;29;20501;-69
2021/07/11 00:24:19;;;;;;;8.88;6.55;;;;;;;13.59;100.00;95983.91;1018968;29;20062;-68
2021/07/11 00:24:50;;;;;;;8.90;5.70;;;;;;;13.62;100.00;95987.84;1015341;29;20055;-68
2021/07/11 00:25:21;;;;;;;11.52;5.43;;;;;;;13.60;100.00;95984.69;1023142;29;20496;-67
2021/07/11 00:25:52;;;;;;;9.30;6.35;;;;;;;13.60;100.00;95985.47;1019604;28;20267;-68
2021/07/11 00:26:22;;;;;;;10.75;6.45;;;;;;;13.66;100.00;95988.88;1015919;29;20027;-68
2021/07/11 00:26:52;;;;;;;8.73;6.95;;;;;;;13.65;100.00;95984.66;1015149;29;20025;-69
2021/07/11 00:27:23;;;;;;;8.13;5.82;;;;;;;13.56;100.00;95975.75;1014285;29;20032;-69
2021/07/11 00:27:53;;;;;;;9.48;6.00;;;;;;;13.66;100.00;95980.94;1010971;29;20035;-68
2021/07/11 00:28:26;;;;;;;9.80;5.82;;;;;;;13.69;100.00;95996.22;1011084;29;20025;-68
2021/07/11 00:28:57;;;;;;;10.73;6.88;;;;;;;13.70;100.00;95989.88;1010855;29;20052;-68
2021/07/11 00:29:27;;;;;;;7.72;5.20;;;;;;;13.66;100.00;95988.88;1013935;29;20285;-68
2021/07/11 00:29:58;;;;;;;5.90;5.25;;;;;;;13.58;100.00;95978.88;1013870;29;20028;-68
2021/07/11 00:30:28;;;;;;;8.80;6.05;;;;;;;13.60;100.00;95968.88;1022683;29;20042;-66
2021/07/11 00:31:04;;;;;;;7.85;6.53;;;;;;;13.60;100.00;95979.41;1020992;29;20081;-67
2021/07/11 00:31:35;;;;;;;8.43;5.47;;;;;;;13.66;100.00;95984.38;1015227;29;20264;-68
2021/07/11 00:32:05;;;;;;;6.80;5.43;;;;;;;13.66;100.00;95978.31;1015061;29;20921;-68
2021/07/11 00:32:39;;;;;;;7.03;5.97;;;;;;;13.70;100.00;95989.88;1011224;29;20553;-68
2021/07/11 00:33:10;;;;;;;7.88;5.70;;;;;;;13.62;100.00;95974.66;1014356;29;20032;-69
2021/07/11 00:33:40;;;;;;;8.65;6.35;;;;;;;13.72;100.00;95987.75;1018975;29;20046;-71
2021/07/11 00:34:11;;;;;;;10.07;6.55;;;;;;;13.71;100.00;95986.16;1013057;29;20028;-68
2021/07/11 00:34:41;;;;;;;9.13;6.78;;;;;;;13.72;100.00;95992.25;1012691;29;20028;-67
2021/07/11 00:35:12;;;;;;;7.93;5.57;;;;;;;13.68;100.00;95981.44;1010390;29;20404;-69
2021/07/11 00:35:42;;;;;;;11.48;6.05;;;;;;;13.66;100.00;95973.03;1008126;29;20383;-68
2021/07/11 00:36:13;;;;;;;9.05;6.32;;;;;;;13.72;100.00;95984.34;1015095;29;20028;-68
2021/07/11 00:36:43;;;;;;;8.13;6.00;;;;;;;13.63;100.00;95974.38;1010908;29;20472;-68
2021/07/11 00:37:14;;;;;;;6.35;5.50;;;;;;;13.70;100.00;95984.59;1010678;29;20896;-66
2021/07/11 00:37:44;;;;;;;6.80;4.97;;;;;;;13.68;100.00;95990.16;1019325;29;20047;-68
2021/07/11 00:38:14;;;;;;;8.63;5.55;;;;;;;13.70;100.00;95989.88;1015793;29;20470;-68
2021/07/11 00:38:45;;;;;;;8.65;5.82;;;;;;;13.70;100.00;95992.53;1016581;29;20036;-70
2021/07/11 00:39:15;;;;;;;13.35;7.28;;;;;;;13.72;100.00;95986.97;1012688;29;20093;-68
2021/07/11 00:39:46;;;;;;;9.55;6.82;;;;;;;13.71;100.00;95991.44;1005115;29;20032;-68
2021/07/11 00:40:16;;;;;;;12.93;7.65;;;;;;;13.74;100.00;95988.25;1010887;29;20037;-69
2021/07/11 00:40:47;;;;;;;8.35;6.10;;;;;;;13.61;100.00;95981.75;1011267;29;20024;-68
2021/07/11 00:41:18;;;;;;;8.07;6.10;;;;;;;13.69;100.00;95990.94;1011442;29;20052;-68
2021/07/11 00:41:49;;;;;;;10.02;6.50;;;;;;;13.67;100.00;95987.78;1015165;29;20288;-68
2021/07/11 00:42:22;;;;;;;6.78;6.07;;;;;;;13.66;100.00;95984.38;1016605;29;20606;-69
2021/07/11 00:42:53;;;;;;;8.68;6.35;;;;;;;13.68;100.00;95984.09;1012470;29;20024;-68
2021/07/11 00:43:26;;;;;;;11.32;7.10;;;;;;;13.64;100.00;95986.47;1016500;29;20284;-68
2021/07/11 00:43:56;;;;;;;8.93;5.78;;;;;;;13.67;100.00;95993.06;1019517;29;20039;-69
2021/07/11 00:44:27;;;;;;;8.18;6.05;;;;;;;13.64;100.00;95988.34;1019638;29;20322;-67
2021/07/11 00:44:57;;;;;;;9.57;6.88;;;;;;;13.64;100.00;95990.97;1022849;29;20023;-69
2021/07/11 00:45:28;;;;;;;7.60;5.88;;;;;;;13.67;100.00;95979.88;1017155;29;20028;-68
2021/07/11 00:46:00;;;;;;;9.90;6.60;;;;;;;13.68;100.00;95992.00;1020605;29;20027;-69
2021/07/11 00:46:30;;;;;;;12.50;7.85;;;;;;;13.63;100.00;95979.66;1021002;29;20024;-69
2021/07/11 00:47:01;;;;;;;9.30;6.63;;;;;;;13.65;100.00;95982.81;1012849;29;20277;-68
2021/07/11 00:47:32;;;;;;;12.07;7.80;;;;;;;13.68;100.00;95984.91;1003162;29;20052;-68
2021/07/11 00:48:03;;;;;;;9.05;7.22;;;;;;;13.66;100.00;95979.09;1003444;29;20839;-68
2021/07/11 00:48:33;;;;;;;12.95;8.15;;;;;;;13.69;100.00;95983.03;1015475;29;20087;-69
2021/07/11 00:49:04;;;;;;;10.65;7.40;;;;;;;13.69;100.00;95983.03;1015568;29;20032;-68
2021/07/11 00:49:35;;;;;;;7.65;6.18;;;;;;;13.64;100.00;95972.53;1015270;29;20032;-68
2021/07/11 00:50:10;;;;;;;8.48;7.28;;;;;;;13.72;100.00;95981.72;1015328;29;20272;-68
2021/07/11 00:50:44;;;;;;;11.85;7.82;;;;;;;13.70;100.00;95983.81;1009890;29;20048;-68
2021/07/11 00:51:14;;;;;;;10.32;7.32;;;;;;;13.68;100.00;95984.09;1008747;29;20274;-69
2021/07/11 00:51:47;;;;;;;12.20;7.68;;;;;;;13.71;100.00;95980.13;1012408;29;20041;-68
2021/07/11 00:52:20;;;;;;;12.23;7.38;;;;;;;13.70;100.00;95981.97;1011857;29;20055;-69
2021/07/11 00:52:51;;;;;;;9.50;6.63;;;;;;;13.69;100.00;95980.41;1016706;29;20338;-69
2021/07/11 00:53:22;;;;;;;12.25;8.27;;;;;;;13.72;100.00;95984.34;1027012;28;20367;-69
2021/07/11 00:53:52;;;;;;;11.18;6.03;;;;;;;13.71;100.00;95980.91;1025854;28;20035;-68
2021/07/11 00:54:23;;;;;;;11.27;7.10;;;;;;;13.65;100.00;95974.13;1018996;29;20043;-68
2021/07/11 00:54:54;;;;;;;16.95;8.32;;;;;;;13.64;100.00;95964.59;1018772;29;20031;-68
2021/07/11 00:55:24;;;;;;;11.07;6.82;;;;;;;13.66;100.00;95973.81;1019341;29;20027;-68
2021/07/11 00:55:54;;;;;;;10.27;6.05;;;;;;;13.63;100.00;95977.00;1007527;29;20053;-68
2021/07/11 00:56:28;;;;;;;9.88;6.60;;;;;;;13.67;100.00;95974.59;1016458;29;20027;-69
2021/07/11 00:56:59;;;;;;;9.90;6.55;;;;;;;13.66;100.00;95975.69;1015220;29;20107;-69
2021/07/11 00:57:30;;;;;;;12.70;7.13;;;;;;;13.61;100.00;95959.88;1018222;29;20686;-69
2021/07/11 00:58:00;;;;;;;7.90;6.40;;;;;;;13.62;100.00;95970.16;1018618;29;20298;-69
2021/07/11 00:58:33;;;;;;;11.02;6.63;;;;;;;13.68;100.00;95982.25;1015215;29;20816;-68
2021/07/11 00:59:04;;;;;;;7.72;5.72;;;;;;;13.59;100.00;95965.44;1015104;29;20073;-68
2021/07/11 00:59:35;;;;;;;10.73;6.75;;;;;;;13.58;100.00;95965.69;1015295;29;20280;-68
2021/07/11 01:00:07;;;;;;;8.70;6.07;;;;;;;13.62;100.00;95975.44;1011739;29;20016;-68
2021/07/11 01:00:38;;;;;;;7.65;6.47;;;;;;;13.61;100.00;95971.22;1011177;29;20458;-68
2021/07/11 01:01:08;;;;;;;13.18;8.00;;;;;;;13.63;100.00;95973.59;1014969;29;20252;-68
2021/07/11 01:01:43;;;;;;;13.73;8.18;;;;;;;13.66;100.00;95978.31;1015265;29;20379;-68
2021/07/11 01:02:17;;;;;;;8.73;6.28;;;;;;;13.66;100.00;95978.31;1019329;29;20012;-68
2021/07/11 01:03:04;;;;;;;12.35;7.20;;;;;;;13.67;100.00;95979.88;1016222;29;20276;-68
2021/07/11 01:03:35;;;;;;;9.82;6.88;;;;;;;13.68;100.00;95976.16;1015384;29;20816;-68
2021/07/11 01:04:10;;;;;;;9.00;6.32;;;;;;;13.66;100.00;95971.19;1017708;29;20270;-68
2021/07/11 01:05:06;;;;;;;9.55;6.53;;;;;;;13.63;100.00;95969.09;1011187;29;20292;-68
2021/07/11 01:05:36;;;;;;;12.80;7.38;;;;;;;13.68;100.00;95976.16;1015279;29;20264;-68
2021/07/11 01:06:07;;;;;;;9.75;6.78;;;;;;;13.57;100.00;95964.91;1019243;29;20751;-67
2021/07/11 01:06:39;;;;;;;12.38;7.32;;;;;;;13.60;100.00;95969.66;1017782;29;20607;-68
2021/07/11 01:07:12;;;;;;;14.20;8.38;;;;;;;13.64;100.00;95970.66;1014260;29;20047;-68
2021/07/11 01:07:43;;;;;;;9.73;6.55;;;;;;;13.65;100.00;95976.75;1011922;29;20269;-65
2021/07/11 01:08:16;;;;;;;10.77;6.75;;;;;;;13.59;100.00;95970.72;1015435;29;20815;-69
2021/07/11 01:08:54;;;;;;;13.10;7.28;;;;;;;13.68;100.00;95976.16;1016087;29;20099;-68
2021/07/11 01:09:28;;;;;;;12.40;7.07;;;;;;;13.62;100.00;95972.03;1018906;29;20398;-68
2021/07/11 01:10:02;;;;;;;12.75;7.20;;;;;;;13.62;100.00;95966.75;1022542;29;20271;-69
2021/07/11 01:10:37;;;;;;;7.82;6.03;;;;;;;13.60;100.00;95968.88;1019289;29;20335;-68
2021/07/11 01:11:09;;;;;;;7.95;5.82;;;;;;;13.64;100.00;95972.53;1015122;29;20276;-69
2021/07/11 01:11:49;;;;;;;8.32;6.55;;;;;;;13.64;100.00;95980.44;1011208;29;20359;-68
2021/07/11 01:12:21;;;;;;;8.85;6.47;;;;;;;13.65;100.00;95982.81;1011371;29;20268;-68
2021/07/11 01:12:54;;;;;;;13.82;7.25;;;;;;;13.66;100.00;95978.31;1011343;29;20021;-69
2021/07/11 01:13:24;;;;;;;10.20;6.70;;;;;;;13.62;100.00;95977.31;1010871;29;20301;-68
2021/07/11 01:13:56;;;;;;;8.65;6.10;;;;;;;13.61;100.00;95981.75;1011300;29;20305;-69
2021/07/11 01:14:30;;;;;;;8.82;6.13;;;;;;;13.61;100.00;95980.97;1011366;29;20013;-68
2021/07/11 01:15:03;;;;;;;9.93;6.95;;;;;;;13.62;100.00;95982.56;1014506;29;20279;-68
2021/07/11 01:15:33;;;;;;;12.23;8.02;;;;;;;13.61;100.00;95976.47;1015000;29;20355;-68
2021/07/11 01:16:07;;;;;;;11.48;8.23;;;;;;;13.66;100.00;95975.69;1015329;29;20259;-69
2021/07/11 01:16:40;;;;;;;8.77;6.88;;;;;;;13.59;100.00;95973.34;1018193;29;20018;-68
2021/07/11 01:17:10;;;;;;;12.32;7.53;;;;;;;13.67;100.00;95979.88;1018821;29;20294;-68
2021/07/11 01:17:41;;;;;;;13.90;7.20;;;;;;;13.68;100.00;95981.44;1014387;29;20279;-68
2021/07/11 01:18:11;;;;;;;11.38;7.55;;;;;;;13.71;100.00;95983.53;1011265;29;20024;-69
2021/07/11 01:18:44;;;;;;;11.15;6.75;;;;;;;13.66;100.00;95980.94;1014757;29;20032;-68
2021/07/11 01:19:24;;;;;;;12.25;6.60;;;;;;;13.70;100.00;95986.47;1015225;29;20264;-69
2021/07/11 01:20:40;;;;;;;8.98;5.80;;;;;;;13.66;100.00;95983.59;1019096;29;20023;-69
2021/07/11 01:21:12;;;;;;;8.77;6.22;;;;;;;13.68;100.00;95984.91;1015753;29;20362;-68
2021/07/11 01:21:47;;;;;;;8.88;6.75;;;;;;;13.68;100.00;95989.34;1015069;29;20279;-64
2021/07/11 01:22:22;;;;;;;7.57;6.57;;;;;;;13.68;100.00;95987.53;1014767;29;20268;-69
2021/07/11 01:22:53;;;;;;;9.55;6.70;;;;;;;13.70;100.00;95989.88;1016746;29;20347;-69
2021/07/11 01:23:29;;;;;;;8.60;7.18;;;;;;;13.72;100.00;95986.97;1016398;29;20269;-69
2021/07/11 01:24:29;;;;;;;9.68;5.75;;;;;;;13.70;100.00;95992.53;1019106;29;20054;-69
2021/07/11 01:25:03;;;;;;;11.13;7.88;;;;;;;13.69;100.00;95983.03;1003001;29;21034;-69
2021/07/11 01:25:36;;;;;;;9.00;6.85;;;;;;;13.65;100.00;95977.53;1018864;29;20272;-69
2021/07/11 01:26:11;;;;;;;8.68;7.07;;;;;;;13.71;100.00;95986.16;1022943;29;20262;-70
2021/07/11 01:26:42;;;;;;;8.32;6.68;;;;;;;13.72;100.00;95986.97;1023085;29;20275;-68
2021/07/11 01:27:13;;;;;;;12.52;8.32;;;;;;;13.69;100.00;95983.03;1018335;29;20275;-69
2021/07/11 01:27:43;;;;;;;11.57;7.25;;;;;;;13.73;100.00;95984.06;1014886;29;20268;-69
2021/07/11 01:28:18;;;;;;;16.38;8.57;;;;;;;13.67;100.00;95974.59;1019311;29;20064;-69
2021/07/11 01:28:49;;;;;;;9.98;7.38;;;;;;;13.73;100.00;95978.00;1018549;29;20032;-69
2021/07/11 01:29:20;;;;;;;9.85;7.30;;;;;;;13.72;100.00;95982.50;1015267;29;20508;-68
2021/07/11 01:29:51;;;;;;;10.98;7.40;;;;;;;13.69;100.00;95977.78;1012189;29;20734;-69
2021/07/11 01:30:21;;;;;;;9.88;6.80;;;;;;;13.67;100.00;95990.44;1010416;29;20040;-69
2021/07/11 01:30:52;;;;;;;7.43;6.03;;;;;;;13.67;100.00;95985.94;1009054;29;20364;-69
2021/07/11 01:31:23;;;;;;;7.57;6.03;;;;;;;13.67;100.00;95979.88;1011133;29;20077;-69
2021/07/11 01:31:56;;;;;;;12.48;6.75;;;;;;;13.64;100.00;95975.16;1011912;29;20025;-69
2021/07/11 01:32:27;;;;;;;12.13;6.38;;;;;;;13.64;100.00;95973.31;1011913;29;20056;-69
2021/07/11 01:32:57;;;;;;;8.68;5.80;;;;;;;13.61;100.00;95975.69;1023020;29;20298;-69
2021/07/11 01:33:32;;;;;;;9.10;6.25;;;;;;;13.66;100.00;95983.59;1023146;29;20430;-69
2021/07/11 01:34:02;;;;;;;11.00;7.65;;;;;;;13.63;100.00;95974.38;1019090;29;20458;-69
2021/07/11 01:34:35;;;;;;;10.95;6.88;;;;;;;13.63;100.00;95973.59;1018811;29;20027;-69
2021/07/11 01:35:07;;;;;;;8.50;6.25;;;;;;;13.69;100.00;95983.03;1018982;29;20132;-69
2021/07/11 01:35:38;;;;;;;8.20;6.88;;;;;;;13.68;100.00;95979.63;1017378;29;20271;-68
2021/07/11 01:36:12;;;;;;;8.10;6.70;;;;;;;13.72;100.00;95986.97;1014878;29;20315;-69
2021/07/11 01:36:42;;;;;;;8.65;5.97;;;;;;;13.69;100.00;95983.03;1014928;29;20487;-68
2021/07/11 01:37:13;;;;;;;8.85;5.90;;;;;;;13.67;100.00;95985.16;1013147;29;20264;-66
2021/07/11 01:37:45;;;;;;;9.82;6.55;;;;;;;13.71;100.00;95986.16;1011237;29;20036;-69
2021/07/11 01:38:15;;;;;;;8.23;5.10;;;;;;;13.67;100.00;95983.31;1018666;29;20030;-69
2021/07/11 01:38:47;;;;;;;9.93;5.60;;;;;;;13.67;100.00;95985.94;1014207;29;20295;-68
2021/07/11 01:39:18;;;;;;;8.93;5.70;;;;;;;13.65;100.00;95982.81;1013841;29;20402;-69
2021/07/11 01:39:48;;;;;;;8.15;5.97;;;;;;;13.61;100.00;95978.34;1011003;29;20291;-69
2021/07/11 01:40:18;;;;;;;7.10;5.70;;;;;;;13.67;100.00;95978.03;1011243;29;20064;-70
2021/07/11 01:40:49;;;;;;;9.13;5.65;;;;;;;13.67;100.00;95985.16;1010582;29;20055;-70
2021/07/11 01:41:20;;;;;;;9.00;5.57;;;;;;;13.60;100.00;95972.28;1011341;29;20035;-69
2021/07/11 01:41:53;;;;;;;7.43;4.60;;;;;;;13.63;100.00;95981.50;1012756;29;20036;-69
2021/07/11 01:42:24;;;;;;;9.40;4.90;;;;;;;13.63;100.00;95982.28;1018674;29;20641;-69
2021/07/11 01:42:55;;;;;;;6.22;5.15;;;;;;;13.65;100.00;95984.66;1011830;29;20047;-70
2021/07/11 01:43:25;;;;;;;5.88;5.05;;;;;;;13.61;100.00;95979.13;1015157;29;20528;-69
2021/07/11 01:43:59;;;;;;;6.90;4.80;;;;;;;13.61;100.00;95973.84;1013556;29;20777;-69
2021/07/11 01:44:29;;;;;;;10.45;5.57;;;;;;;13.59;100.00;95972.56;1007532;29;20266;-69
2021/07/11 01:45:00;;;;;;;8.20;5.15;;;;;;;13.61;100.00;95987.03;1007397;29;20049;-69
2021/07/11 01:45:33;;;;;;;9.43;4.85;;;;;;;13.62;100.00;95986.00;1012426;29;20028;-69
2021/07/11 01:46:04;;;;;;;5.43;4.03;;;;;;;13.62;100.00;95979.94;1008669;29;20028;-68
2021/07/11 01:46:34;;;;;;;8.18;4.80;;;;;;;13.62;100.00;95985.22;1010805;29;20676;-70
2021/07/11 01:47:05;;;;;;;6.55;4.72;;;;;;;13.61;100.00;95987.03;1014821;29;20020;-68
2021/07/11 01:47:35;;;;;;;6.70;4.97;;;;;;;13.61;100.00;95986.25;1012802;29;20028;-69
2021/07/11 01:48:06;;;;;;;5.93;4.85;;;;;;;13.61;100.00;95981.75;1014679;29;20050;-69
2021/07/11 01:48:36;;;;;;;11.18;5.47;;;;;;;13.56;100.00;95975.75;1007278;29;20036;-69
2021/07/11 01:49:10;;;;;;;11.30;5.50;;;;;;;13.58;100.00;95986.78;1008877;29;20599;-69
2021/07/11 01:49:40;;;;;;;6.85;5.05;;;;;;;13.58;100.00;95976.25;1015236;29;20283;-68
2021/07/11 01:50:11;;;;;;;6.78;5.30;;;;;;;13.59;100.00;95983.91;1014247;29;20032;-69
2021/07/11 01:50:42;;;;;;;9.32;6.00;;;;;;;13.63;100.00;95989.41;1011365;29;20023;-69
2021/07/11 01:51:12;;;;;;;6.40;5.00;;;;;;;13.44;100.00;95965.53;1014367;29;20024;-70
2021/07/11 01:51:45;;;;;;;7.50;4.72;;;;;;;13.59;100.00;95981.25;1010767;29;20036;-69
2021/07/11 01:52:16;;;;;;;8.05;4.60;;;;;;;13.58;100.00;95986.78;1007455;29;20020;-70
2021/07/11 01:52:46;;;;;;;7.75;5.57;;;;;;;13.58;100.00;95986.78;1018423;29;20633;-69
2021/07/11 01:53:21;;;;;;;8.43;5.47;;;;;;;13.58;100.00;95986.78;1010897;29;20400;-69
2021/07/11 01:53:52;;;;;;;10.45;5.82;;;;;;;13.60;100.00;95987.31;1010929;29;20041;-69
2021/07/11 01:54:22;;;;;;;6.03;5.20;;;;;;;13.58;100.00;95981.53;1009499;29;20964;-70
2021/07/11 01:54:53;;;;;;;6.25;5.35;;;;;;;13.52;100.00;95977.38;1015451;29;20031;-69
2021/07/11 01:55:25;;;;;;;7.03;5.32;;;;;;;13.60;100.00;95987.31;1011014;29;20032;-69
2021/07/11 01:55:56;;;;;;;10.43;6.28;;;;;;;13.56;100.00;95986.31;1010708;29;20064;-69
2021/07/11 01:56:27;;;;;;;6.85;5.20;;;;;;;13.57;100.00;95986.00;1014713;29;20634;-69
2021/07/11 01:56:57;;;;;;;6.35;4.80;;;;;;;13.57;100.00;95987.88;1012945;29;20061;-69
2021/07/11 01:57:28;;;;;;;5.50;4.55;;;;;;;13.56;100.00;95979.19;1010364;29;20265;-69
2021/07/11 01:57:58;;;;;;;7.35;4.45;;;;;;;13.54;100.00;95989.19;1014962;29;20788;-69
2021/07/11 01:58:29;;;;;;;5.38;4.30;;;;;;;13.51;100.00;95984.47;1018822;29;20032;-69
2021/07/11 01:58:59;;;;;;;4.65;4.00;;;;;;;13.52;100.00;95982.66;1021315;29;20114;-70
2021/07/11 01:59:29;;;;;;;6.45;4.60;;;;;;;13.51;100.00;95983.69;1014642;29;20028;-69
2021/07/11 02:00:00;;;;;;;4.93;4.03;;;;;;;13.48;100.00;95982.41;1016227;29;20039;-70
2021/07/11 02:00:31;;;;;;;4.55;4.13;;;;;;;13.47;100.00;95986.09;1018728;29;20027;-69
2021/07/11 02:01:04;;;;;;;6.20;4.28;;;;;;;13.46;100.00;95978.47;1007424;29;20029;-69
2021/07/11 02:01:34;;;;;;;8.85;5.47;;;;;;;13.49;100.00;95989.25;1006882;29;20441;-69
2021/07/11 02:02:07;;;;;;;7.18;5.15;;;;;;;13.50;100.00;95990.81;1004707;29;20288;-69
2021/07/11 02:02:41;;;;;;;9.15;5.40;;;;;;;13.43;100.00;95983.22;1007159;29;20040;-70
2021/07/11 02:03:18;;;;;;;6.35;5.38;;;;;;;13.42;100.00;95972.97;1018912;29;20279;-70
2021/07/11 02:03:49;;;;;;;7.00;4.72;;;;;;;13.49;100.00;95989.25;1017820;29;20630;-69
2021/07/11 02:04:19;;;;;;;4.70;3.97;;;;;;;13.48;100.00;95990.31;1015387;29;20272;-69
2021/07/11 02:04:50;;;;;;;4.82;3.70;;;;;;;13.45;100.00;95993.50;1003672;29;20515;-69
2021/07/11 02:05:21;;;;;;;7.03;4.00;;;;;;;13.43;100.00;95979.78;1011083;29;20269;-69
2021/07/11 02:05:52;;;;;;;4.55;3.50;;;;;;;13.36;100.00;95984.59;1013197;29;20482;-68
2021/07/11 02:06:23;;;;;;;8.13;4.10;;;;;;;13.40;100.00;95996.94;1011415;29;20123;-69
2021/07/11 02:06:53;;;;;;;4.53;4.10;;;;;;;13.41;100.00;95993.25;1018623;29;20286;-69
2021/07/11 02:07:24;;;;;;;5.90;3.80;;;;;;;13.38;100.00;95987.72;1013954;29;20042;-69
2021/07/11 02:07:54;;;;;;;4.43;3.20;;;;;;;13.36;100.00;95984.59;1014521;29;20032;-69
2021/07/11 02:08:25;;;;;;;5.97;4.13;;;;;;;13.36;100.00;95998.56;1014829;29;20043;-69
2021/07/11 02:08:55;;;;;;;3.58;3.22;;;;;;;13.34;100.00;95995.41;1014953;29;20036;-69
2021/07/11 02:09:26;;;;;;;3.55;3.20;;;;;;;13.34;100.00;95987.50;1022165;28;20073;-69
2021/07/11 02:09:56;;;;;;;5.55;3.97;;;;;;;13.34;100.00;95992.75;1022349;29;20027;-69
2021/07/11 02:10:27;;;;;;;5.03;3.53;;;;;;;13.32;100.00;95997.53;1022812;29;20095;-69
2021/07/11 02:10:57;;;;;;;10.05;4.45;;;;;;;13.34;100.00;95991.97;1018356;29;20050;-70
2021/07/11 02:11:28;;;;;;;5.10;4.60;;;;;;;13.34;100.00;95982.22;1015292;29;20387;-69
2021/07/11 02:12:01;;;;;;;4.50;3.58;;;;;;;13.35;100.00;95993.56;1016475;29;20498;-69
2021/07/11 02:12:32;;;;;;;5.70;4.32;;;;;;;13.35;100.00;95993.56;1017930;29;20024;-69
2021/07/11 02:13:06;;;;;;;5.25;4.00;;;;;;;13.32;100.00;95994.91;1018740;29;20283;-68
2021/07/11 02:13:42;;;;;;;3.97;3.45;;;;;;;13.34;100.00;95995.41;1018935;29;20132;-69
2021/07/11 02:14:14;;;;;;;5.07;3.47;;;;;;;13.34;100.00;95998.03;1012338;29;20279;-68
2021/07/11 02:14:45;;;;;;;6.32;4.10;;;;;;;13.33;100.00;95995.69;1014923;29;20344;-70
2021/07/11 02:15:15;;;;;;;4.22;3.65;;;;;;;13.28;100.00;95979.88;1014879;29;20297;-69
2021/07/11 02:15:47;;;;;;;4.47;3.30;;;;;;;13.29;100.00;95987.53;1018845;29;20064;-70
2021/07/11 02:16:25;;;;;;;7.15;3.40;;;;;;;13.28;100.00;95988.59;1014627;29;20031;-69
2021/07/11 02:17:22;;;;;;;5.65;4.53;;;;;;;13.29;100.00;95990.16;1007553;29;20349;-69
2021/07/11 02:17:52;;;;;;;3.55;3.13;;;;;;;13.28;100.00;95993.88;1007568;29;20961;-70
2021/07/11 02:18:26;;;;;;;6.32;3.55;;;;;;;13.27;100.00;95994.91;1014822;29;20264;-69
2021/07/11 02:18:57;;;;;;;4.25;3.40;;;;;;;13.24;100.00;95986.75;1018845;29;20027;-70
2021/07/11 02:19:28;;;;;;;3.40;3.10;;;;;;;13.25;100.00;95989.16;1017076;29;20300;-70
2021/07/11 02:20:00;;;;;;;12.77;4.13;;;;;;;13.28;100.00;95993.06;1014173;29;20039;-69
2021/07/11 02:20:30;;;;;;;6.30;5.20;;;;;;;13.24;100.00;95992.00;1014654;29;20285;-68
2021/07/11 02:21:01;;;;;;;6.10;3.42;;;;;;;13.19;100.00;95980.44;1014458;29;20274;-68
2021/07/11 02:21:31;;;;;;;3.72;3.17;;;;;;;13.19;100.00;95988.34;1008081;29;20021;-69
2021/07/11 02:22:08;;;;;;;3.25;2.95;;;;;;;13.11;100.00;95982.84;1006720;29;20025;-69
2021/07/11 02:22:45;;;;;;;5.22;4.00;;;;;;;13.19;100.00;95990.19;1007047;29;20739;-68
2021/07/11 02:23:17;;;;;;;6.97;4.63;;;;;;;13.17;100.00;95989.66;1013681;29;20295;-69
2021/07/11 02:23:47;;;;;;;5.15;3.63;;;;;;;13.16;100.00;95988.88;1006858;29;20281;-69
2021/07/11 02:24:18;;;;;;;4.50;3.15;;;;;;;13.13;100.00;95986.00;1010760;29;20300;-69
2021/07/11 02:24:49;;;;;;;6.95;3.67;;;;;;;13.14;100.00;95993.63;1015251;29;20020;-69
2021/07/11 02:25:22;;;;;;;4.40;3.88;;;;;;;13.10;100.00;95982.06;1014781;29;20032;-69
2021/07/11 02:25:53;;;;;;;5.50;3.83;;;;;;;13.11;100.00;95982.84;1018192;29;20277;-69
2021/07/11 02:26:24;;;;;;;5.15;3.28;;;;;;;13.13;100.00;95986.78;1004863;29;20333;-69
2021/07/11 02:26:58;;;;;;;4.22;3.17;;;;;;;13.13;100.00;95997.34;1014640;29;20089;-70
2021/07/11 02:27:28;;;;;;;3.65;3.35;;;;;;;13.12;100.00;95984.44;1013990;29;20796;-69
2021/07/11 02:27:59;;;;;;;4.95;3.83;;;;;;;12.96;100.00;95970.56;1016893;29;20263;-69
2021/07/11 02:28:30;;;;;;;3.80;3.30;;;;;;;13.10;100.00;95989.19;1018509;29;20031;-69